This is the latest recevied weather packets stored in our database for station/object 9M4GEK-3. If no packets are shown the sender has not sent any weather packets the latest 10 day(s).
| Time | Temp. | Humidity | Pressure | Rain* | Wind** | Luminosity | Snow |
|---|---|---|---|---|---|---|---|
| 1778213172 | 27.78° C | 71% | 1009.1 hPa | - | - | - | - |
| 1778212272 | 29.44° C | 66% | 1009.1 hPa | - | - | - | - |
| 1778211371 | 29.44° C | 67% | 1009.2 hPa | - | - | - | - |
| 1778210471 | 30.56° C | 63% | 1009.1 hPa | - | - | - | - |
| 1778209571 | 32.22° C | 59% | 1009.1 hPa | - | - | - | - |
| 1778208670 | 32.22° C | 60% | 1009.3 hPa | - | - | - | - |
| 1778207770 | 32.78° C | 60% | 1009.1 hPa | - | - | - | - |
| 1778206870 | 32.78° C | 62% | 1009.2 hPa | - | - | - | - |
| 1778206326 | 33.89° C | 60% | 1009 hPa | - | - | - | - |
| 1778205978 | 32.78° C | 62% | 1008.9 hPa | - | - | - | - |
| 1778205970 | 33.89° C | 60% | 1009 hPa | - | - | - | - |
| 1778205664 | 32.78° C | 63% | 1008.7 hPa | - | - | - | - |
| 1778205070 | 32.78° C | 62% | 1008.9 hPa | - | - | - | - |
| 1778204652 | 30° C | 69% | 1008.6 hPa | - | - | - | - |
| 1778204170 | 32.78° C | 63% | 1008.7 hPa | - | - | - | - |
| 1778203299 | 30.56° C | 69% | 1008.5 hPa | - | - | - | - |
| 1778203270 | 30° C | 69% | 1008.6 hPa | - | - | - | - |
| 1778202371 | 30.56° C | 69% | 1008.5 hPa | - | - | - | - |
| 1778201470 | 30° C | 71% | 1008.4 hPa | - | - | - | - |
| 1778201270 | 29.44° C | 70% | 1008.2 hPa | - | - | - | - |
| 1778200617 | 28.33° C | 73% | 1007.9 hPa | - | - | - | - |
| 1778200569 | 29.44° C | 70% | 1008.2 hPa | - | - | - | - |
| 1778199669 | 28.33° C | 73% | 1007.9 hPa | - | - | - | - |
| 1778198817 | 28.33° C | 73% | 1007.4 hPa | - | - | - | - |
| 1778198768 | 28.33° C | 74% | 1007.6 hPa | - | - | - | - |
* Rain since midnight (hover to see other rain measurements)
** Current wind speed in m/s (hover to see current wind gust speed)